Time;durP1;ratioP1;P1;durP2;ratioP2;P2;SDS_P1;SDS_P2;PMS_P1;PMS_P2;Temp;Humidity;BMP_temperature;BMP_pressure;BME280_temperature;BME280_humidity;BME280_pressure;Samples;Min_cycle;Max_cycle;Signal;HPM_P1;HPM_P2
2022/12/12 00:00:31;;;;;;;41.40;24.60;;;;;;;0.47;100.00;100912.50;5049928;28;20043;-56
2022/12/12 00:02:57;;;;;;;34.80;22.95;;;;;;;0.23;100.00;100871.75;5003937;28;20536;-53
2022/12/12 00:05:22;;;;;;;36.22;23.63;;;;;;;0.24;100.00;100864.81;5045951;28;20108;-55
2022/12/12 00:07:47;;;;;;;36.75;22.02;;;;;;;0.66;100.00;100948.09;5027172;28;20492;-55
2022/12/12 00:10:13;;;;;;;36.10;22.80;;;;;;;0.23;100.00;100873.47;5038729;28;20048;-57
2022/12/12 00:12:39;;;;;;;39.45;24.45;;;;;;;0.64;100.00;100957.59;5049777;28;20112;-55
2022/12/12 00:15:05;;;;;;;32.92;22.70;;;;;;;0.64;100.00;100957.59;5021059;28;20116;-56
2022/12/12 00:17:30;;;;;;;34.65;21.38;;;;;;;0.60;100.00;100948.03;5044587;28;20088;-57
2022/12/12 00:19:55;;;;;;;34.83;22.20;;;;;;;0.55;100.00;100939.38;5045754;28;20488;-55
2022/12/12 00:22:21;;;;;;;34.92;23.15;;;;;;;0.58;100.00;100939.41;5003198;28;20052;-56
2022/12/12 00:24:46;;;;;;;28.80;21.85;;;;;;;0.50;100.00;100928.06;5049621;28;20036;-56
2022/12/12 00:27:11;;;;;;;29.85;20.52;;;;;;;0.51;100.00;100940.19;5039476;28;20071;-58
2022/12/12 00:29:37;;;;;;;33.03;22.25;;;;;;;0.40;100.00;100936.63;5043110;28;20045;-58
2022/12/12 00:32:02;;;;;;;36.10;21.63;;;;;;;0.04;100.00;100887.03;5046511;28;20053;-57
2022/12/12 00:34:28;;;;;;;35.38;22.90;;;;;;;0.36;100.00;100950.38;5036703;28;20438;-57
2022/12/12 00:36:53;;;;;;;36.08;22.52;;;;;;;0.27;100.00;100956.34;5049107;28;21175;-57
2022/12/12 00:39:18;;;;;;;34.92;21.63;;;;;;;0.17;100.00;100953.63;5040047;28;20389;-54
2022/12/12 00:41:44;;;;;;;34.58;23.63;;;;;;;-0.16;100.00;100908.41;5042006;28;20057;-54
2022/12/12 00:44:10;;;;;;;37.35;22.90;;;;;;;-0.47;100.00;100875.25;5029299;28;20479;-56
2022/12/12 00:46:35;;;;;;;34.13;22.92;;;;;;;-0.52;100.00;100895.00;5036209;28;20040;-54
2022/12/12 00:49:00;;;;;;;35.63;23.27;;;;;;;-0.68;100.00;100869.81;5030165;28;20095;-55
2022/12/12 00:51:27;;;;;;;34.63;22.95;;;;;;;-0.42;100.00;100938.25;5041177;28;20455;-58
2022/12/12 00:53:52;;;;;;;35.67;22.63;;;;;;;-0.43;100.00;100967.53;5040570;28;20465;-56
2022/12/12 00:56:19;;;;;;;32.88;21.73;;;;;;;-0.56;100.00;100957.88;5048144;28;20044;-56
2022/12/12 00:58:45;;;;;;;35.92;21.63;;;;;;;-0.64;100.00;100969.78;5018026;28;20033;-56
2022/12/12 01:01:13;;;;;;;35.70;23.80;;;;;;;-0.70;100.00;100970.56;5028579;28;20092;-54
2022/12/12 01:03:40;;;;;;;37.38;22.50;;;;;;;-0.88;100.00;100939.31;5042626;28;20037;-55
2022/12/12 01:06:06;;;;;;;37.72;22.20;;;;;;;-0.98;100.00;100931.38;5038677;28;20030;-54
2022/12/12 01:08:31;;;;;;;37.92;23.55;;;;;;;-1.32;100.00;100886.94;5031062;28;20040;-55
2022/12/12 01:10:57;;;;;;;42.38;25.08;;;;;;;-0.87;100.00;100959.09;5018704;28;20462;-58
2022/12/12 01:13:23;;;;;;;39.53;24.42;;;;;;;-0.93;100.00;100955.56;5026444;28;20318;-57
2022/12/12 01:15:48;;;;;;;40.58;24.17;;;;;;;-1.00;100.00;100953.75;5026139;28;20051;-55
2022/12/12 01:18:14;;;;;;;38.72;24.33;;;;;;;-1.42;100.00;100882.47;5019610;28;20025;-55
2022/12/12 01:20:40;;;;;;;40.17;24.45;;;;;;;-1.40;100.00;100895.41;5048440;28;20472;-56
2022/12/12 01:23:05;;;;;;;39.67;24.13;;;;;;;-1.51;100.00;100882.31;5019977;28;20106;-56
2022/12/12 01:25:30;;;;;;;38.90;23.70;;;;;;;-1.15;100.00;100946.59;5043106;28;20037;-55
2022/12/12 01:27:56;;;;;;;44.35;25.10;;;;;;;-1.12;100.00;100967.31;5026509;28;20067;-58
2022/12/12 01:30:21;;;;;;;37.97;24.05;;;;;;;-1.36;100.00;100928.16;5036064;28;20059;-55
2022/12/12 01:32:47;;;;;;;38.45;23.70;;;;;;;-1.34;100.00;100950.56;5048415;28;20034;-58
2022/12/12 01:35:13;;;;;;;43.58;24.20;;;;;;;-1.51;100.00;100944.25;5038541;28;20053;-57
2022/12/12 01:37:39;;;;;;;40.28;24.23;;;;;;;-1.44;100.00;100971.94;5041941;28;20061;-56
2022/12/12 01:40:07;;;;;;;46.40;25.98;;;;;;;-1.98;100.00;100884.03;5045398;28;20041;-56
2022/12/12 01:42:32;;;;;;;42.65;25.65;;;;;;;-1.62;100.00;100979.34;5034936;28;20061;-56
2022/12/12 01:44:58;;;;;;;49.92;27.35;;;;;;;-1.65;100.00;100992.19;5029404;28;20063;-56
2022/12/12 01:47:24;;;;;;;42.42;25.80;;;;;;;-2.18;100.00;100903.41;5039219;28;20037;-56
2022/12/12 01:50:05;;;;;;;44.40;25.55;;;;;;;-1.77;100.00;100994.50;5022559;28;20077;-55
2022/12/12 01:52:40;;;;;;;47.20;25.23;;;;;;;-1.97;100.00;100968.34;5047984;28;20033;-57
2022/12/12 01:55:06;;;;;;;44.40;24.30;;;;;;;-1.89;100.00;100989.09;5037068;28;20148;-54
2022/12/12 01:57:35;;;;;;;45.92;27.40;;;;;;;-1.92;100.00;100989.91;5024705;28;20040;-55
2022/12/12 02:00:03;;;;;;;55.70;28.10;;;;;;;-2.07;100.00;100968.13;5027177;28;20151;-54
2022/12/12 02:02:29;;;;;;;53.05;25.83;;;;;;;-2.36;100.00;100927.13;5035082;28;20030;-54
2022/12/12 02:04:54;;;;;;;48.20;27.27;;;;;;;-2.04;100.00;100989.66;5029284;28;20080;-52
2022/12/12 02:07:20;;;;;;;44.00;25.58;;;;;;;-2.06;100.00;100995.63;5020207;28;20036;-55
2022/12/12 02:09:46;;;;;;;43.95;24.85;;;;;;;-2.41;100.00;100939.06;5040895;28;20485;-56
2022/12/12 02:12:13;;;;;;;51.63;26.90;;;;;;;-2.11;100.00;101020.47;5046352;28;20045;-56
2022/12/12 02:14:41;;;;;;;47.40;25.33;;;;;;;-2.51;100.00;100942.25;5017373;28;20030;-56
2022/12/12 02:17:18;;;;;;;49.25;26.30;;;;;;;-2.22;100.00;100996.16;5027537;28;20033;-57
2022/12/12 02:19:55;;;;;;;51.15;25.40;;;;;;;-2.19;100.00;101006.53;5008041;28;20071;-55
2022/12/12 02:22:47;;;;;;;51.65;26.55;;;;;;;-2.20;100.00;101004.78;5035648;28;20033;-54
2022/12/12 02:25:18;;;;;;;51.65;26.80;;;;;;;-2.23;100.00;101025.34;5006585;28;20150;-56
2022/12/12 02:27:56;;;;;;;;;;;;;;;-2.28;100.00;101007.22;5023379;28;20032;-55
2022/12/12 02:30:26;;;;;;;47.65;26.27;;;;;;;-2.34;100.00;101015.69;5045983;28;19940;-58
2022/12/12 02:33:33;;;;;;;51.45;26.73;;;;;;;-2.31;100.00;101017.47;5018878;28;20068;-54
2022/12/12 02:36:25;;;;;;;45.25;25.52;;;;;;;-2.35;100.00;101039.72;4957688;28;20035;-55
2022/12/12 02:39:03;;;;;;;55.30;27.52;;;;;;;-2.85;100.00;100940.63;4938186;28;20494;-56
2022/12/12 02:41:36;;;;;;;50.45;26.92;;;;;;;-2.43;100.00;101020.63;5009674;28;20576;-56
2022/12/12 02:44:23;;;;;;;48.88;26.10;;;;;;;-2.83;100.00;100958.69;5010167;28;20029;-57
2022/12/12 02:47:11;;;;;;;52.65;27.17;;;;;;;-2.50;100.00;101030.75;5017013;28;20534;-55
2022/12/12 02:49:44;;;;;;;47.72;26.70;;;;;;;-2.91;100.00;100957.66;5023719;28;20063;-58
2022/12/12 02:52:10;;;;;;;56.25;28.85;;;;;;;-2.53;100.00;101022.94;5027633;28;20598;-56
2022/12/12 02:54:36;;;;;;;61.03;29.17;;;;;;;-2.53;100.00;101012.63;5034537;28;20492;-58
2022/12/12 02:57:02;;;;;;;57.67;28.25;;;;;;;-2.56;100.00;101007.41;5046150;28;20040;-54
2022/12/12 02:59:32;;;;;;;54.10;29.08;;;;;;;-2.57;100.00;101016.00;5042515;28;20029;-55
2022/12/12 03:02:19;;;;;;;57.28;29.33;;;;;;;-2.58;100.00;101011.66;5024527;28;20033;-56
2022/12/12 03:08:05;;;;;;;55.28;30.25;;;;;;;-2.63;100.00;101016.75;5045952;28;20043;-56
2022/12/12 03:10:34;;;;;;;62.33;29.25;;;;;;;-2.63;100.00;101021.88;5038247;28;20043;-58
2022/12/12 03:13:18;;;;;;;54.78;29.92;;;;;;;-2.63;100.00;101016.75;5031831;28;20033;-55
2022/12/12 03:16:11;;;;;;;59.30;28.73;;;;;;;-3.15;100.00;100929.59;5045323;28;20040;-57
2022/12/12 03:19:05;;;;;;;57.53;28.65;;;;;;;-2.68;100.00;101015.72;5037316;28;20537;-57
2022/12/12 03:21:41;;;;;;;62.95;28.80;;;;;;;-2.71;100.00;101017.34;5045356;28;20039;-53
2022/12/12 03:24:42;;;;;;;58.40;28.55;;;;;;;-2.75;100.00;101024.16;5030330;28;20104;-57
2022/12/12 03:27:21;;;;;;;56.33;28.65;;;;;;;-2.78;100.00;101023.22;4992958;28;20040;-58
2022/12/12 03:30:05;;;;;;;67.53;29.25;;;;;;;-3.19;100.00;100962.97;5025390;28;20030;-57
2022/12/12 03:33:00;;;;;;;53.80;29.42;;;;;;;-3.33;100.00;100936.91;5032742;28;20430;-56
2022/12/12 03:35:39;;;;;;;62.42;29.88;;;;;;;-2.87;100.00;101029.91;5024368;28;20049;-56
2022/12/12 03:38:19;;;;;;;58.17;29.45;;;;;;;-2.99;100.00;101006.41;5022313;28;20045;-55
2022/12/12 03:40:58;;;;;;;69.18;30.63;;;;;;;-2.91;100.00;101029.75;5050283;28;20446;-56
2022/12/12 03:43:25;;;;;;;64.88;29.85;;;;;;;-3.13;100.00;100994.03;5023961;28;20373;-57
2022/12/12 03:46:10;;;;;;;59.78;31.02;;;;;;;-3.04;100.00;101010.59;5024557;28;20033;-57
2022/12/12 03:48:40;;;;;;;67.03;31.42;;;;;;;-3.08;100.00;101005.31;5050415;28;20129;-55
2022/12/12 03:51:29;;;;;;;65.95;31.70;;;;;;;-3.01;100.00;101017.50;5021504;28;20025;-56
2022/12/12 03:54:16;;;;;;;66.63;31.25;;;;;;;-3.54;100.00;100928.63;5031390;28;20500;-56
2022/12/12 03:57:04;;;;;;;67.18;30.77;;;;;;;-3.06;100.00;101030.25;5050056;28;20037;-52
2022/12/12 03:59:52;;;;;;;61.35;29.80;;;;;;;-3.07;100.00;101027.66;5042278;28;20492;-51
2022/12/12 04:02:28;;;;;;;71.13;32.38;;;;;;;-3.55;100.00;100956.06;5038210;28;20028;-56
2022/12/12 04:05:05;;;;;;;59.17;30.23;;;;;;;-3.11;100.00;101029.28;5003607;28;20471;-52
2022/12/12 04:07:44;;;;;;;66.93;31.40;;;;;;;-3.22;100.00;101011.81;5033591;28;20040;-54
2022/12/12 04:13:26;;;;;;;69.43;32.72;;;;;;;-3.15;100.00;101032.59;5006873;28;20424;-55
2022/12/12 04:15:56;;;;;;;64.32;31.27;;;;;;;-3.17;100.00;101035.97;4997039;28;20056;-53
2022/12/12 04:18:29;;;;;;;70.80;34.13;;;;;;;-3.18;100.00;101036.81;5031611;28;20029;-55
2022/12/12 04:24:06;;;;;;;66.03;31.05;;;;;;;-3.20;100.00;101030.72;5026591;28;20400;-57
2022/12/12 04:26:38;;;;;;;69.95;34.85;;;;;;;-3.21;100.00;101035.00;5049729;28;20029;-57
2022/12/12 04:29:25;;;;;;;75.47;33.65;;;;;;;-3.22;100.00;101032.41;5020228;28;20029;-57
2022/12/12 04:32:02;;;;;;;69.75;32.58;;;;;;;-3.34;100.00;101014.06;5024022;28;20045;-56
2022/12/12 04:34:36;;;;;;;74.28;34.42;;;;;;;-3.25;100.00;101045.19;5031719;28;20033;-54
2022/12/12 04:37:03;;;;;;;71.68;33.78;;;;;;;-3.32;100.00;101033.84;5003696;28;20484;-53
2022/12/12 04:39:29;;;;;;;68.70;33.33;;;;;;;-3.84;100.00;100958.69;5044136;28;20029;-55
2022/12/12 04:41:56;;;;;;;70.20;32.97;;;;;;;-3.88;100.00;100959.44;5027905;28;20029;-57
2022/12/12 04:44:22;;;;;;;76.35;33.72;;;;;;;-3.45;100.00;101037.84;5019373;28;20098;-57
2022/12/12 04:46:50;;;;;;;72.93;33.90;;;;;;;-3.88;100.00;100967.16;5031327;28;20464;-59
2022/12/12 04:49:21;;;;;;;81.65;34.72;;;;;;;-3.92;100.00;100970.47;5039614;28;20029;-56
2022/12/12 04:51:50;;;;;;;77.35;35.90;;;;;;;-3.52;100.00;101046.19;5041710;28;20030;-55
2022/12/12 04:54:27;;;;;;;74.30;34.08;;;;;;;-3.54;100.00;101049.56;5029732;28;20025;-54
2022/12/12 04:56:56;;;;;;;77.18;35.35;;;;;;;-4.02;100.00;100959.94;5002863;28;20040;-57
2022/12/12 04:59:22;;;;;;;73.95;34.67;;;;;;;-4.06;100.00;100963.22;5026896;28;20025;-55
2022/12/12 05:02:21;;;;;;;77.10;36.40;;;;;;;-3.57;100.00;101042.63;5025868;28;20052;-54
2022/12/12 05:04:56;;;;;;;78.22;33.88;;;;;;;-3.59;100.00;101046.00;5018212;28;20483;-52
2022/12/12 05:07:39;;;;;;;70.88;32.97;;;;;;;-3.83;100.00;101004.16;5032750;28;20108;-56
2022/12/12 05:10:17;;;;;;;82.18;36.33;;;;;;;-3.63;100.00;101044.16;5021081;28;20078;-57
2022/12/12 05:12:51;;;;;;;81.55;34.67;;;;;;;-3.66;100.00;101049.22;5048746;28;20057;-56
2022/12/12 05:15:18;;;;;;;77.03;36.70;;;;;;;-3.70;100.00;101031.94;5039209;28;20476;-56
2022/12/12 05:17:59;;;;;;;75.57;35.38;;;;;;;-3.71;100.00;101061.09;5023660;28;20029;-53
2022/12/12 05:20:25;;;;;;;77.70;36.97;;;;;;;-3.74;100.00;101054.16;5047958;28;20071;-56
2022/12/12 05:22:50;;;;;;;75.53;36.35;;;;;;;-3.77;100.00;101041.22;5035211;28;20078;-54
2022/12/12 05:25:15;;;;;;;76.35;35.35;;;;;;;-3.88;100.00;101027.16;5045031;28;20057;-57
2022/12/12 05:27:41;;;;;;;78.05;36.50;;;;;;;-3.82;100.00;101050.47;5024577;28;20044;-56
2022/12/12 05:30:06;;;;;;;75.28;36.08;;;;;;;-3.88;100.00;101047.72;5038046;28;20061;-58
2022/12/12 05:32:32;;;;;;;79.55;37.00;;;;;;;-3.86;100.00;101052.94;5030649;28;20041;-56
2022/12/12 05:34:58;;;;;;;78.35;35.65;;;;;;;-4.00;100.00;101039.69;5036591;28;20062;-57
2022/12/12 05:37:23;;;;;;;76.10;35.88;;;;;;;-3.89;100.00;101050.28;5044024;28;20049;-53
2022/12/12 05:39:49;;;;;;;78.85;36.38;;;;;;;-3.92;100.00;101061.34;5043243;28;20392;-52
2022/12/12 05:42:14;;;;;;;83.22;37.70;;;;;;;-4.00;100.00;101050.81;5019225;28;20069;-55
2022/12/12 05:44:39;;;;;;;82.50;38.10;;;;;;;-3.95;100.00;101060.38;5048376;28;20106;-57
2022/12/12 05:47:05;;;;;;;83.30;36.97;;;;;;;-4.45;100.00;100982.66;5037110;28;20061;-55
2022/12/12 05:49:31;;;;;;;83.13;36.50;;;;;;;-4.00;100.00;101057.69;5042780;28;20040;-54
2022/12/12 05:51:56;;;;;;;78.68;36.08;;;;;;;-4.02;100.00;101062.75;5044143;28;20033;-57
2022/12/12 05:54:21;;;;;;;73.38;35.72;;;;;;;-4.51;100.00;100977.31;5035716;28;20107;-56
2022/12/12 05:56:47;;;;;;;84.05;36.35;;;;;;;-4.20;100.00;101031.38;5030239;28;20079;-54
2022/12/12 05:59:12;;;;;;;82.47;35.88;;;;;;;-4.04;100.00;101066.13;5038138;28;20033;-55
2022/12/12 06:01:37;;;;;;;83.25;37.22;;;;;;;-4.36;100.00;101024.03;5041110;28;20033;-56
2022/12/12 06:04:03;;;;;;;88.53;37.20;;;;;;;-4.52;100.00;100990.97;5031779;28;20073;-55
2022/12/12 06:06:28;;;;;;;80.78;36.83;;;;;;;-4.51;100.00;101007.28;5000554;28;20065;-57
2022/12/12 06:08:53;;;;;;;87.38;36.47;;;;;;;-4.18;100.00;101075.13;5043551;28;20039;-57
2022/12/12 06:11:19;;;;;;;79.60;35.45;;;;;;;-4.14;100.00;101077.81;5031948;28;20042;-59
2022/12/12 06:13:44;;;;;;;85.47;39.28;;;;;;;-4.19;100.00;101063.09;5023619;28;20049;-57
2022/12/12 06:16:15;;;;;;;82.93;37.70;;;;;;;-4.64;100.00;100988.91;5039753;28;20037;-59
2022/12/12 06:18:41;;;;;;;;;;;;;;;-4.15;100.00;101081.25;5033591;28;20083;-57
2022/12/12 06:21:08;;;;;;;85.70;38.22;;;;;;;-4.29;100.00;101051.66;5045986;28;19913;-55
2022/12/12 06:23:36;;;;;;;88.57;39.35;;;;;;;-4.15;100.00;101085.50;5040798;28;20399;-57
2022/12/12 06:26:01;;;;;;;81.57;38.05;;;;;;;-4.52;100.00;101024.38;5020650;28;20047;-55
2022/12/12 06:28:26;;;;;;;84.22;37.92;;;;;;;-4.17;100.00;101076.84;5031474;28;20388;-57
2022/12/12 06:30:52;;;;;;;93.00;39.33;;;;;;;-4.19;100.00;101092.25;5048096;28;20036;-54
2022/12/12 06:33:17;;;;;;;84.13;37.40;;;;;;;-4.81;100.00;100991.78;5023096;28;20036;-57
2022/12/12 06:35:42;;;;;;;76.95;38.40;;;;;;;-4.31;100.00;101084.16;5026760;28;20033;-57
2022/12/12 06:38:07;;;;;;;86.53;38.20;;;;;;;-4.77;100.00;101001.34;5016974;28;20053;-54
2022/12/12 06:40:33;;;;;;;84.45;38.00;;;;;;;-4.36;100.00;101090.84;5050479;28;20037;-56
2022/12/12 06:42:58;;;;;;;87.70;39.03;;;;;;;-4.27;100.00;101103.09;5021949;28;20033;-53
2022/12/12 06:45:23;;;;;;;92.57;38.30;;;;;;;-4.42;100.00;101076.94;5043487;28;20152;-58
2022/12/12 06:47:49;;;;;;;80.68;36.70;;;;;;;-4.70;100.00;101034.94;5043577;28;20040;-54
2022/12/12 06:50:15;;;;;;;82.60;36.85;;;;;;;-4.43;100.00;101086.31;5040448;28;20033;-56
2022/12/12 06:52:40;;;;;;;89.25;37.80;;;;;;;-4.69;100.00;101039.28;5019077;28;20064;-59
2022/12/12 06:55:06;;;;;;;96.47;38.03;;;;;;;-4.38;100.00;101091.63;5049394;28;20049;-59
2022/12/12 06:57:31;;;;;;;85.22;38.17;;;;;;;-4.46;100.00;101093.94;5044054;28;20036;-55
2022/12/12 06:59:57;;;;;;;86.72;38.83;;;;;;;-4.44;100.00;101104.28;5024115;28;20049;-58
2022/12/12 07:02:22;;;;;;;88.25;37.90;;;;;;;-5.02;100.00;101009.94;5049992;28;20036;-56
2022/12/12 07:04:48;;;;;;;89.13;37.63;;;;;;;-4.49;100.00;101113.53;5020194;28;20033;-57
2022/12/12 07:07:13;;;;;;;84.38;38.88;;;;;;;-4.50;100.00;101111.78;5040521;28;20526;-57
2022/12/12 07:09:39;;;;;;;81.30;38.33;;;;;;;-4.52;100.00;101103.16;5044269;28;20037;-53
2022/12/12 07:12:04;;;;;;;91.82;40.75;;;;;;;-4.96;100.00;101030.66;5033944;28;20063;-56
2022/12/12 07:14:29;;;;;;;88.18;38.75;;;;;;;-4.52;100.00;101110.88;5033358;28;20056;-57
2022/12/12 07:16:55;;;;;;;93.35;38.25;;;;;;;-4.60;100.00;101108.91;5038701;28;20029;-56
2022/12/12 07:19:21;;;;;;;89.97;38.58;;;;;;;-4.66;100.00;101087.28;5046885;28;20032;-57
2022/12/12 07:21:47;;;;;;;83.63;37.25;;;;;;;-4.50;100.00;101117.81;5018117;28;20030;-55
2022/12/12 07:24:14;;;;;;;92.00;38.22;;;;;;;-4.30;100.00;101129.59;5031106;28;20040;-54
2022/12/12 07:26:40;;;;;;;90.53;39.22;;;;;;;-4.25;100.00;101114.31;5020544;28;20033;-57
2022/12/12 07:29:05;;;;;;;88.68;37.17;;;;;;;-4.28;100.00;101119.34;5048974;28;20196;-59
2022/12/12 07:31:31;;;;;;;94.88;38.85;;;;;;;-4.33;100.00;101118.34;5035352;28;20107;-55
2022/12/12 07:33:56;;;;;;;98.75;38.88;;;;;;;-4.46;100.00;101100.75;5046359;28;20104;-55
2022/12/12 07:36:21;;;;;;;82.25;36.85;;;;;;;-4.37;100.00;101113.91;5037765;28;20377;-58
2022/12/12 07:38:47;;;;;;;87.38;36.53;;;;;;;-4.39;100.00;101113.88;5032899;28;20056;-58
2022/12/12 07:41:14;;;;;;;88.85;38.72;;;;;;;-4.41;100.00;101118.09;5027257;28;20327;-53
2022/12/12 07:43:41;;;;;;;87.93;36.00;;;;;;;-4.40;100.00;101126.66;5008470;28;20030;-57
2022/12/12 07:46:08;;;;;;;81.55;35.83;;;;;;;-4.42;100.00;101139.47;5033937;28;20026;-56
2022/12/12 07:48:33;;;;;;;86.22;38.25;;;;;;;-4.46;100.00;101122.19;5034212;28;20056;-58
2022/12/12 07:50:59;;;;;;;82.40;36.72;;;;;;;-4.52;100.00;101134.00;5031775;28;20021;-60
2022/12/12 07:53:25;;;;;;;85.00;37.75;;;;;;;-4.45;100.00;101135.91;5024775;28;20071;-58
2022/12/12 07:55:50;;;;;;;89.28;38.88;;;;;;;-4.46;100.00;101142.75;5046994;28;20041;-60
2022/12/12 07:58:15;;;;;;;85.30;38.78;;;;;;;-4.47;100.00;101153.88;5038228;28;20043;-58
2022/12/12 08:00:41;;;;;;;85.25;36.58;;;;;;;-4.56;100.00;101135.59;5030453;28;20040;-59
2022/12/12 08:03:07;;;;;;;88.22;38.42;;;;;;;-4.46;100.00;101153.03;5020509;28;20540;-59
2022/12/12 08:05:32;;;;;;;83.68;38.50;;;;;;;-4.56;100.00;101135.59;5043907;28;20112;-58
2022/12/12 08:07:57;;;;;;;90.95;39.38;;;;;;;-4.46;100.00;101157.28;5032236;28;20025;-58
2022/12/12 08:10:23;;;;;;;86.53;36.15;;;;;;;-4.39;100.00;101175.53;5019514;28;20454;-59
2022/12/12 08:12:48;;;;;;;95.20;36.53;;;;;;;-4.41;100.00;101163.47;5017996;28;20073;-58
2022/12/12 08:15:15;;;;;;;84.15;36.28;;;;;;;-4.55;100.00;101147.59;5045996;28;20116;-58
2022/12/12 08:17:41;;;;;;;74.25;36.30;;;;;;;-4.87;100.00;101077.19;5042800;28;20070;-60
2022/12/12 08:20:07;;;;;;;79.97;37.75;;;;;;;-4.43;100.00;101159.97;5050015;28;20036;-59
2022/12/12 08:22:33;;;;;;;89.47;37.63;;;;;;;-4.28;100.00;101183.59;5035640;28;20040;-57
2022/12/12 08:24:58;;;;;;;85.28;37.35;;;;;;;-4.20;100.00;101174.41;5048399;28;20433;-59
2022/12/12 08:27:23;;;;;;;88.93;38.45;;;;;;;-4.14;100.00;101169.47;5052194;28;20048;-58
2022/12/12 08:29:51;;;;;;;89.28;39.88;;;;;;;-4.04;100.00;101174.09;5040861;28;20071;-59
2022/12/12 08:32:16;;;;;;;100.90;40.63;;;;;;;-3.99;100.00;101169.97;5014329;28;20025;-59
2022/12/12 08:34:42;;;;;;;92.35;39.63;;;;;;;-3.93;100.00;101167.59;5047182;28;20097;-59
2022/12/12 08:37:07;;;;;;;85.43;38.17;;;;;;;-3.87;100.00;101172.91;5019279;28;20049;-56
2022/12/12 08:39:32;;;;;;;86.75;37.53;;;;;;;-3.91;100.00;101159.94;5025103;28;20108;-56
2022/12/12 08:41:59;;;;;;;83.13;36.67;;;;;;;-3.77;100.00;101179.22;5032685;28;20036;-57
2022/12/12 08:44:24;;;;;;;90.72;39.10;;;;;;;-3.72;100.00;101167.38;5010972;28;20034;-58
2022/12/12 08:46:49;;;;;;;89.90;39.53;;;;;;;-3.69;100.00;101168.34;5000469;28;20131;-58
2022/12/12 08:49:15;;;;;;;92.47;38.50;;;;;;;-3.68;100.00;101159.81;5044023;28;20041;-56
2022/12/12 08:51:40;;;;;;;86.60;39.75;;;;;;;-3.60;100.00;101167.75;5041756;28;20040;-57
2022/12/12 08:54:07;;;;;;;91.50;38.20;;;;;;;-3.56;100.00;101167.88;5037976;28;20048;-56
2022/12/12 08:56:32;;;;;;;81.50;36.60;;;;;;;-3.94;100.00;101093.84;5048280;28;20045;-56
2022/12/12 08:58:57;;;;;;;91.45;40.35;;;;;;;-3.53;100.00;101165.38;5036275;28;20078;-58
2022/12/12 09:01:24;;;;;;;81.10;36.55;;;;;;;-3.47;100.00;101174.97;5043576;28;20098;-58
2022/12/12 09:03:51;;;;;;;85.13;37.83;;;;;;;-3.57;100.00;101152.41;5042929;28;20526;-58
2022/12/12 09:06:17;;;;;;;90.78;39.55;;;;;;;-3.45;100.00;101176.78;5036316;28;20084;-57
2022/12/12 09:08:43;;;;;;;84.75;38.65;;;;;;;-3.42;100.00;101170.88;5030317;28;20056;-58
2022/12/12 09:11:09;;;;;;;89.93;37.58;;;;;;;-3.33;100.00;101181.44;5037259;28;20037;-58
2022/12/12 09:13:36;;;;;;;86.07;40.55;;;;;;;-3.41;100.00;101152.88;5042895;28;20112;-54
2022/12/12 09:16:02;;;;;;;85.40;37.15;;;;;;;-3.36;100.00;101176.19;5026816;28;20087;-56
2022/12/12 09:18:28;;;;;;;86.90;38.20;;;;;;;-3.29;100.00;101182.34;5017030;28;20045;-53
2022/12/12 09:20:55;;;;;;;93.93;38.42;;;;;;;-3.23;100.00;101185.09;5047726;28;20041;-57
2022/12/12 09:23:21;;;;;;;91.90;39.67;;;;;;;-3.17;100.00;101196.47;5021808;28;20500;-58
2022/12/12 09:25:47;;;;;;;81.00;38.92;;;;;;;-3.13;100.00;101182.84;5039577;28;20030;-57
2022/12/12 09:28:15;;;;;;;86.35;38.60;;;;;;;-3.59;100.00;101094.88;5031294;28;20124;-57
2022/12/12 09:30:41;;;;;;;78.53;38.33;;;;;;;-3.02;100.00;101180.56;5047371;28;20033;-58
2022/12/12 09:33:06;;;;;;;85.10;38.05;;;;;;;-2.98;100.00;101178.09;5012491;28;20041;-57
2022/12/12 09:35:32;;;;;;;85.38;39.65;;;;;;;-2.94;100.00;101179.94;4997181;28;20041;-57
2022/12/12 09:37:58;;;;;;;81.15;37.35;;;;;;;-2.91;100.00;101176.56;5031674;28;20131;-57
2022/12/12 09:40:31;;;;;;;84.38;38.22;;;;;;;-2.96;100.00;101160.13;5019458;28;20076;-57
2022/12/12 09:42:57;;;;;;;82.28;38.35;;;;;;;-2.80;100.00;101169.16;5017149;28;20032;-57
2022/12/12 09:45:22;;;;;;;81.88;36.08;;;;;;;-2.79;100.00;101176.03;5043426;28;20033;-54
2022/12/12 09:47:57;;;;;;;81.93;36.75;;;;;;;-2.78;100.00;101177.78;4995541;28;20082;-54
2022/12/12 09:50:49;;;;;;;91.57;38.88;;;;;;;-2.63;100.00;101175.63;5013364;28;20322;-55
2022/12/12 09:53:18;;;;;;;78.78;37.63;;;;;;;-2.84;100.00;101139.84;5016522;28;20053;-57
2022/12/12 09:55:46;;;;;;;78.75;35.92;;;;;;;-2.57;100.00;101175.78;5023580;28;20037;-57
2022/12/12 09:58:49;;;;;;;82.55;37.47;;;;;;;-2.53;100.00;101177.59;5036372;28;20041;-57
2022/12/12 10:01:31;;;;;;;82.80;37.20;;;;;;;-2.50;100.00;101178.53;4993173;28;20038;-58
2022/12/12 10:04:21;;;;;;;79.70;36.33;;;;;;;-2.43;100.00;101177.00;5008504;28;20029;-57
2022/12/12 10:06:57;;;;;;;74.95;37.25;;;;;;;-2.39;100.00;101181.38;5047017;28;20492;-58
2022/12/12 10:09:45;;;;;;;81.22;35.45;;;;;;;-2.35;100.00;101170.31;5008626;28;20037;-57
2022/12/12 10:12:13;;;;;;;75.32;36.05;;;;;;;-2.34;100.00;101161.75;5031571;28;20087;-57
2022/12/12 10:14:42;;;;;;;85.15;36.65;;;;;;;-2.27;100.00;101172.25;5034245;28;20037;-56
2022/12/12 10:17:14;;;;;;;78.47;36.28;;;;;;;-2.41;100.00;101155.56;5032338;28;20543;-55
2022/12/12 10:19:52;;;;;;;74.22;34.35;;;;;;;-2.25;100.00;101176.59;5040134;28;20066;-58
2022/12/12 10:22:29;;;;;;;80.60;34.50;;;;;;;-2.68;100.00;101090.44;5017195;28;20040;-57
2022/12/12 10:25:09;;;;;;;72.70;34.05;;;;;;;-2.11;100.00;101164.88;5015970;28;20033;-57
2022/12/12 10:27:35;;;;;;;71.68;32.20;;;;;;;-2.51;100.00;101090.88;5043767;28;20079;-58
2022/12/12 10:30:12;;;;;;;67.07;33.20;;;;;;;-2.10;100.00;101144.28;5028617;28;20042;-58
2022/12/12 10:33:02;;;;;;;73.45;33.17;;;;;;;-1.97;100.00;101156.63;5045567;28;20037;-57
2022/12/12 10:35:37;;;;;;;65.45;32.67;;;;;;;-1.95;100.00;101169.56;5037999;28;20511;-56
2022/12/12 10:38:30;;;;;;;70.35;33.55;;;;;;;-1.97;100.00;101153.19;5035812;28;20057;-56
2022/12/12 10:41:27;;;;;;;71.43;32.65;;;;;;;-1.97;100.00;101154.06;5018150;28;20072;-56
2022/12/12 10:44:08;;;;;;;71.05;31.35;;;;;;;-1.97;100.00;101148.03;5020453;28;20029;-56
2022/12/12 10:46:39;;;;;;;69.95;31.35;;;;;;;-2.25;100.00;101107.84;5028633;28;20036;-58
2022/12/12 10:49:14;;;;;;;62.70;31.73;;;;;;;-2.27;100.00;101124.97;5001694;28;20041;-55
2022/12/12 10:51:39;;;;;;;63.10;30.83;;;;;;;-2.37;100.00;101092.97;5005626;28;20026;-55
2022/12/12 10:54:22;;;;;;;62.90;31.92;;;;;;;-2.03;100.00;101159.06;5025935;28;20039;-55
2022/12/12 10:57:13;;;;;;;64.57;31.20;;;;;;;-2.02;100.00;101145.34;5015414;28;20104;-54
2022/12/12 10:59:47;;;;;;;65.05;32.05;;;;;;;-2.46;100.00;101066.09;5040782;28;20440;-55
2022/12/12 11:02:39;;;;;;;62.38;30.58;;;;;;;-1.96;100.00;101149.78;5046201;28;20033;-56
2022/12/12 11:05:04;;;;;;;70.25;33.28;;;;;;;-1.96;100.00;101157.50;5037838;28;20033;-55
2022/12/12 11:07:45;;;;;;;63.47;32.72;;;;;;;-1.97;100.00;101140.28;5038506;28;20030;-58
2022/12/12 11:10:29;;;;;;;59.30;30.10;;;;;;;-1.96;100.00;101137.75;5030702;28;20033;-57
2022/12/12 11:13:01;;;;;;;58.80;31.02;;;;;;;-2.41;100.00;101065.34;5036947;28;20071;-56
2022/12/12 11:15:49;;;;;;;55.30;29.77;;;;;;;-1.96;100.00;101142.91;5038818;28;20175;-57
2022/12/12 11:18:17;;;;;;;60.90;30.27;;;;;;;-2.03;100.00;101122.97;5028501;28;20032;-54
2022/12/12 11:20:48;;;;;;;57.42;29.60;;;;;;;-2.26;100.00;101070.00;5040180;28;20036;-56
2022/12/12 11:23:19;;;;;;;60.90;29.90;;;;;;;-2.21;100.00;101076.13;5009683;28;20033;-54
2022/12/12 11:25:45;;;;;;;60.30;29.08;;;;;;;-1.78;100.00;101145.03;5029012;28;20029;-56